sensor_id;sensor_type;location;lat;lon;timestamp;P1;durP1;ratioP1;P2;durP2;ratioP2
24381;SDS011;12502;50.678;7.172;2022-12-07T00:01:28;46.90;;;24.38;;
24381;SDS011;12502;50.678;7.172;2022-12-07T00:06:36;46.90;;;23.52;;
24381;SDS011;12502;50.678;7.172;2022-12-07T00:11:39;43.30;;;22.92;;
24381;SDS011;12502;50.678;7.172;2022-12-07T00:16:42;41.65;;;22.38;;
24381;SDS011;12502;50.678;7.172;2022-12-07T00:21:45;42.40;;;22.80;;
24381;SDS011;12502;50.678;7.172;2022-12-07T00:26:46;42.53;;;22.27;;
24381;SDS011;12502;50.678;7.172;2022-12-07T00:31:48;45.13;;;23.52;;
24381;SDS011;12502;50.678;7.172;2022-12-07T00:36:50;41.78;;;22.58;;
24381;SDS011;12502;50.678;7.172;2022-12-07T00:41:52;45.78;;;23.20;;
24381;SDS011;12502;50.678;7.172;2022-12-07T00:46:54;43.83;;;23.00;;
24381;SDS011;12502;50.678;7.172;2022-12-07T00:51:56;42.13;;;22.45;;
24381;SDS011;12502;50.678;7.172;2022-12-07T00:56:58;51.00;;;24.80;;
24381;SDS011;12502;50.678;7.172;2022-12-07T01:02:00;47.72;;;24.52;;
24381;SDS011;12502;50.678;7.172;2022-12-07T01:07:01;50.97;;;26.23;;
24381;SDS011;12502;50.678;7.172;2022-12-07T01:12:03;45.95;;;25.90;;
24381;SDS011;12502;50.678;7.172;2022-12-07T01:17:05;53.05;;;26.73;;
24381;SDS011;12502;50.678;7.172;2022-12-07T01:22:07;49.47;;;25.83;;
24381;SDS011;12502;50.678;7.172;2022-12-07T01:27:09;46.45;;;24.45;;
24381;SDS011;12502;50.678;7.172;2022-12-07T01:32:10;55.60;;;27.58;;
24381;SDS011;12502;50.678;7.172;2022-12-07T01:37:12;48.22;;;27.02;;
24381;SDS011;12502;50.678;7.172;2022-12-07T01:42:14;56.00;;;27.77;;
24381;SDS011;12502;50.678;7.172;2022-12-07T01:47:15;47.75;;;26.23;;
24381;SDS011;12502;50.678;7.172;2022-12-07T01:52:25;53.03;;;28.10;;
24381;SDS011;12502;50.678;7.172;2022-12-07T01:57:32;51.92;;;27.90;;
24381;SDS011;12502;50.678;7.172;2022-12-07T02:02:38;47.05;;;26.98;;
24381;SDS011;12502;50.678;7.172;2022-12-07T02:07:54;49.22;;;27.77;;
24381;SDS011;12502;50.678;7.172;2022-12-07T02:13:04;58.70;;;31.27;;
24381;SDS011;12502;50.678;7.172;2022-12-07T02:45:15;56.17;;;31.10;;
24381;SDS011;12502;50.678;7.172;2022-12-07T02:50:21;64.90;;;34.00;;
24381;SDS011;12502;50.678;7.172;2022-12-07T02:55:26;63.08;;;33.10;;
24381;SDS011;12502;50.678;7.172;2022-12-07T03:00:40;59.40;;;31.83;;
24381;SDS011;12502;50.678;7.172;2022-12-07T03:06:07;67.25;;;34.40;;
24381;SDS011;12502;50.678;7.172;2022-12-07T03:11:24;65.00;;;33.00;;
24381;SDS011;12502;50.678;7.172;2022-12-07T03:21:39;67.35;;;33.58;;
24381;SDS011;12502;50.678;7.172;2022-12-07T03:27:28;57.85;;;32.10;;
24381;SDS011;12502;50.678;7.172;2022-12-07T03:32:14;59.08;;;32.05;;
24381;SDS011;12502;50.678;7.172;2022-12-07T03:42:42;63.15;;;33.00;;
24381;SDS011;12502;50.678;7.172;2022-12-07T03:47:49;65.18;;;32.95;;
24381;SDS011;12502;50.678;7.172;2022-12-07T03:52:59;68.32;;;33.88;;
24381;SDS011;12502;50.678;7.172;2022-12-07T03:58:10;58.25;;;31.38;;
24381;SDS011;12502;50.678;7.172;2022-12-07T04:03:18;68.30;;;34.42;;
24381;SDS011;12502;50.678;7.172;2022-12-07T04:08:20;67.72;;;35.03;;
24381;SDS011;12502;50.678;7.172;2022-12-07T04:13:22;67.10;;;34.05;;
24381;SDS011;12502;50.678;7.172;2022-12-07T04:18:24;72.03;;;35.72;;
24381;SDS011;12502;50.678;7.172;2022-12-07T04:23:25;64.82;;;33.63;;
24381;SDS011;12502;50.678;7.172;2022-12-07T04:28:27;70.13;;;35.10;;
24381;SDS011;12502;50.678;7.172;2022-12-07T04:33:29;68.40;;;36.60;;
24381;SDS011;12502;50.678;7.172;2022-12-07T04:38:31;64.30;;;35.28;;
24381;SDS011;12502;50.678;7.172;2022-12-07T04:43:33;61.88;;;32.78;;
24381;SDS011;12502;50.678;7.172;2022-12-07T04:48:35;79.47;;;38.33;;
24381;SDS011;12502;50.678;7.172;2022-12-07T04:53:37;59.42;;;31.75;;
24381;SDS011;12502;50.678;7.172;2022-12-07T04:58:40;56.90;;;32.38;;
24381;SDS011;12502;50.678;7.172;2022-12-07T05:03:43;55.45;;;29.58;;
24381;SDS011;12502;50.678;7.172;2022-12-07T05:08:44;60.13;;;32.58;;
24381;SDS011;12502;50.678;7.172;2022-12-07T05:13:47;65.65;;;33.85;;
24381;SDS011;12502;50.678;7.172;2022-12-07T05:18:48;64.90;;;32.28;;
24381;SDS011;12502;50.678;7.172;2022-12-07T05:23:50;51.22;;;29.23;;
24381;SDS011;12502;50.678;7.172;2022-12-07T05:28:52;55.55;;;30.73;;
24381;SDS011;12502;50.678;7.172;2022-12-07T05:33:56;57.33;;;31.88;;
24381;SDS011;12502;50.678;7.172;2022-12-07T05:38:58;59.75;;;31.38;;
24381;SDS011;12502;50.678;7.172;2022-12-07T05:44:00;55.90;;;31.05;;
24381;SDS011;12502;50.678;7.172;2022-12-07T05:49:02;61.55;;;32.72;;
24381;SDS011;12502;50.678;7.172;2022-12-07T05:54:04;56.85;;;30.13;;
24381;SDS011;12502;50.678;7.172;2022-12-07T05:59:05;55.95;;;30.05;;
24381;SDS011;12502;50.678;7.172;2022-12-07T06:04:27;57.92;;;30.98;;
24381;SDS011;12502;50.678;7.172;2022-12-07T06:09:30;62.22;;;31.42;;
24381;SDS011;12502;50.678;7.172;2022-12-07T06:14:32;63.13;;;31.70;;
24381;SDS011;12502;50.678;7.172;2022-12-07T06:19:34;59.30;;;31.33;;
24381;SDS011;12502;50.678;7.172;2022-12-07T06:24:37;65.63;;;32.75;;
24381;SDS011;12502;50.678;7.172;2022-12-07T06:29:39;59.10;;;29.83;;
24381;SDS011;12502;50.678;7.172;2022-12-07T06:34:41;69.10;;;32.05;;
24381;SDS011;12502;50.678;7.172;2022-12-07T06:39:42;56.75;;;27.48;;
24381;SDS011;12502;50.678;7.172;2022-12-07T06:44:44;48.67;;;25.70;;
24381;SDS011;12502;50.678;7.172;2022-12-07T06:49:46;57.95;;;27.35;;
24381;SDS011;12502;50.678;7.172;2022-12-07T06:54:48;47.03;;;24.60;;
24381;SDS011;12502;50.678;7.172;2022-12-07T06:59:50;46.22;;;23.30;;
24381;SDS011;12502;50.678;7.172;2022-12-07T07:04:52;42.45;;;22.98;;
24381;SDS011;12502;50.678;7.172;2022-12-07T07:09:54;48.15;;;26.85;;
24381;SDS011;12502;50.678;7.172;2022-12-07T07:14:56;54.03;;;27.08;;
24381;SDS011;12502;50.678;7.172;2022-12-07T07:19:57;52.33;;;28.88;;
24381;SDS011;12502;50.678;7.172;2022-12-07T07:24:59;49.47;;;26.58;;
24381;SDS011;12502;50.678;7.172;2022-12-07T07:30:01;46.42;;;24.05;;
24381;SDS011;12502;50.678;7.172;2022-12-07T07:35:04;50.83;;;25.57;;
24381;SDS011;12502;50.678;7.172;2022-12-07T07:40:07;54.03;;;26.55;;
24381;SDS011;12502;50.678;7.172;2022-12-07T07:45:09;49.55;;;26.88;;
24381;SDS011;12502;50.678;7.172;2022-12-07T07:50:11;46.92;;;25.17;;
24381;SDS011;12502;50.678;7.172;2022-12-07T07:55:13;43.33;;;23.67;;
24381;SDS011;12502;50.678;7.172;2022-12-07T08:00:15;43.40;;;21.33;;
24381;SDS011;12502;50.678;7.172;2022-12-07T08:05:17;43.63;;;22.48;;
24381;SDS011;12502;50.678;7.172;2022-12-07T08:10:19;41.15;;;23.45;;
24381;SDS011;12502;50.678;7.172;2022-12-07T08:15:21;45.88;;;22.05;;
24381;SDS011;12502;50.678;7.172;2022-12-07T08:20:23;47.35;;;22.67;;
24381;SDS011;12502;50.678;7.172;2022-12-07T08:25:24;43.75;;;23.13;;
24381;SDS011;12502;50.678;7.172;2022-12-07T08:30:27;45.47;;;22.23;;
24381;SDS011;12502;50.678;7.172;2022-12-07T08:35:32;47.28;;;24.55;;
24381;SDS011;12502;50.678;7.172;2022-12-07T08:40:35;41.95;;;23.25;;
24381;SDS011;12502;50.678;7.172;2022-12-07T08:45:36;56.08;;;26.92;;
24381;SDS011;12502;50.678;7.172;2022-12-07T08:50:41;58.55;;;26.40;;
24381;SDS011;12502;50.678;7.172;2022-12-07T08:55:49;46.58;;;24.60;;
24381;SDS011;12502;50.678;7.172;2022-12-07T09:00:52;55.95;;;26.05;;
24381;SDS011;12502;50.678;7.172;2022-12-07T09:05:53;57.05;;;25.90;;
24381;SDS011;12502;50.678;7.172;2022-12-07T09:10:56;46.15;;;24.17;;
24381;SDS011;12502;50.678;7.172;2022-12-07T09:15:57;47.97;;;23.58;;
24381;SDS011;12502;50.678;7.172;2022-12-07T09:20:59;41.45;;;22.17;;
24381;SDS011;12502;50.678;7.172;2022-12-07T09:26:02;42.05;;;18.60;;
24381;SDS011;12502;50.678;7.172;2022-12-07T09:31:11;34.00;;;18.27;;
24381;SDS011;12502;50.678;7.172;2022-12-07T09:36:29;40.58;;;19.95;;
24381;SDS011;12502;50.678;7.172;2022-12-07T09:41:30;36.58;;;16.48;;
24381;SDS011;12502;50.678;7.172;2022-12-07T09:46:34;30.95;;;16.65;;
24381;SDS011;12502;50.678;7.172;2022-12-07T09:51:41;28.98;;;16.08;;
24381;SDS011;12502;50.678;7.172;2022-12-07T09:56:43;26.52;;;15.90;;
24381;SDS011;12502;50.678;7.172;2022-12-07T10:01:49;27.75;;;15.73;;
24381;SDS011;12502;50.678;7.172;2022-12-07T10:06:51;27.83;;;14.98;;
24381;SDS011;12502;50.678;7.172;2022-12-07T10:22:33;26.55;;;14.07;;
24381;SDS011;12502;50.678;7.172;2022-12-07T10:27:34;29.33;;;14.43;;
24381;SDS011;12502;50.678;7.172;2022-12-07T10:32:36;23.48;;;12.52;;
24381;SDS011;12502;50.678;7.172;2022-12-07T10:37:40;22.63;;;11.43;;
24381;SDS011;12502;50.678;7.172;2022-12-07T10:42:42;18.15;;;10.00;;
24381;SDS011;12502;50.678;7.172;2022-12-07T10:48:16;15.25;;;9.40;;
24381;SDS011;12502;50.678;7.172;2022-12-07T11:04:16;17.58;;;9.57;;
24381;SDS011;12502;50.678;7.172;2022-12-07T11:32:14;15.07;;;7.57;;
24381;SDS011;12502;50.678;7.172;2022-12-07T11:37:43;16.45;;;7.20;;
24381;SDS011;12502;50.678;7.172;2022-12-07T11:42:46;17.92;;;7.22;;
24381;SDS011;12502;50.678;7.172;2022-12-07T11:47:54;16.33;;;6.75;;
24381;SDS011;12502;50.678;7.172;2022-12-07T11:53:18;12.40;;;5.97;;
24381;SDS011;12502;50.678;7.172;2022-12-07T11:58:44;10.73;;;4.97;;
24381;SDS011;12502;50.678;7.172;2022-12-07T12:09:14;12.70;;;5.22;;
24381;SDS011;12502;50.678;7.172;2022-12-07T12:25:41;10.57;;;4.20;;
24381;SDS011;12502;50.678;7.172;2022-12-07T12:30:46;13.23;;;4.75;;
24381;SDS011;12502;50.678;7.172;2022-12-07T12:47:00;10.95;;;4.90;;
24381;SDS011;12502;50.678;7.172;2022-12-07T12:58:21;12.35;;;5.28;;
24381;SDS011;12502;50.678;7.172;2022-12-07T13:03:26;10.63;;;5.05;;
24381;SDS011;12502;50.678;7.172;2022-12-07T13:08:30;9.82;;;5.07;;
24381;SDS011;12502;50.678;7.172;2022-12-07T13:13:35;14.02;;;5.22;;
24381;SDS011;12502;50.678;7.172;2022-12-07T13:18:37;16.40;;;7.35;;
24381;SDS011;12502;50.678;7.172;2022-12-07T13:29:27;13.98;;;7.15;;
24381;SDS011;12502;50.678;7.172;2022-12-07T13:34:34;11.32;;;7.05;;
24381;SDS011;12502;50.678;7.172;2022-12-07T13:39:57;12.90;;;6.90;;
24381;SDS011;12502;50.678;7.172;2022-12-07T13:45:20;14.73;;;6.80;;
24381;SDS011;12502;50.678;7.172;2022-12-07T13:50:55;14.93;;;5.85;;
24381;SDS011;12502;50.678;7.172;2022-12-07T13:55:58;10.40;;;6.63;;
24381;SDS011;12502;50.678;7.172;2022-12-07T14:01:00;11.95;;;7.85;;
24381;SDS011;12502;50.678;7.172;2022-12-07T14:06:05;11.38;;;6.97;;
24381;SDS011;12502;50.678;7.172;2022-12-07T14:11:11;19.48;;;8.25;;
24381;SDS011;12502;50.678;7.172;2022-12-07T14:21:24;18.38;;;7.82;;
24381;SDS011;12502;50.678;7.172;2022-12-07T14:26:27;14.35;;;7.50;;
24381;SDS011;12502;50.678;7.172;2022-12-07T14:31:29;15.63;;;7.82;;
24381;SDS011;12502;50.678;7.172;2022-12-07T14:36:31;15.27;;;6.05;;
24381;SDS011;12502;50.678;7.172;2022-12-07T14:41:33;14.73;;;6.68;;
24381;SDS011;12502;50.678;7.172;2022-12-07T14:46:53;10.45;;;6.35;;
24381;SDS011;12502;50.678;7.172;2022-12-07T14:52:18;10.68;;;5.18;;
24381;SDS011;12502;50.678;7.172;2022-12-07T14:57:42;11.93;;;4.60;;
24381;SDS011;12502;50.678;7.172;2022-12-07T15:02:44;11.23;;;5.00;;
24381;SDS011;12502;50.678;7.172;2022-12-07T15:12:50;15.13;;;5.45;;
24381;SDS011;12502;50.678;7.172;2022-12-07T15:17:52;11.80;;;6.57;;
24381;SDS011;12502;50.678;7.172;2022-12-07T15:22:55;12.25;;;6.00;;
24381;SDS011;12502;50.678;7.172;2022-12-07T15:27:57;10.40;;;6.25;;
24381;SDS011;12502;50.678;7.172;2022-12-07T15:32:59;15.15;;;7.38;;
24381;SDS011;12502;50.678;7.172;2022-12-07T15:38:01;14.07;;;8.43;;
24381;SDS011;12502;50.678;7.172;2022-12-07T15:43:04;14.45;;;7.57;;
24381;SDS011;12502;50.678;7.172;2022-12-07T15:48:06;18.48;;;8.68;;
24381;SDS011;12502;50.678;7.172;2022-12-07T15:53:27;14.73;;;8.80;;
24381;SDS011;12502;50.678;7.172;2022-12-07T15:58:30;14.45;;;9.25;;
24381;SDS011;12502;50.678;7.172;2022-12-07T16:03:32;14.95;;;8.73;;
24381;SDS011;12502;50.678;7.172;2022-12-07T16:08:34;18.73;;;9.32;;
24381;SDS011;12502;50.678;7.172;2022-12-07T16:13:37;15.60;;;8.85;;
24381;SDS011;12502;50.678;7.172;2022-12-07T16:18:41;14.02;;;8.60;;
24381;SDS011;12502;50.678;7.172;2022-12-07T16:23:44;22.00;;;11.68;;
24381;SDS011;12502;50.678;7.172;2022-12-07T16:28:50;21.55;;;11.65;;
24381;SDS011;12502;50.678;7.172;2022-12-07T16:33:53;21.48;;;11.23;;
24381;SDS011;12502;50.678;7.172;2022-12-07T16:39:02;18.48;;;10.95;;
24381;SDS011;12502;50.678;7.172;2022-12-07T16:44:11;14.43;;;9.73;;
24381;SDS011;12502;50.678;7.172;2022-12-07T16:49:15;17.95;;;10.20;;
24381;SDS011;12502;50.678;7.172;2022-12-07T16:54:17;16.43;;;10.67;;
24381;SDS011;12502;50.678;7.172;2022-12-07T16:59:19;19.23;;;10.82;;
24381;SDS011;12502;50.678;7.172;2022-12-07T17:04:20;23.08;;;12.02;;
24381;SDS011;12502;50.678;7.172;2022-12-07T17:09:22;19.08;;;11.95;;
24381;SDS011;12502;50.678;7.172;2022-12-07T17:14:24;19.30;;;11.13;;
24381;SDS011;12502;50.678;7.172;2022-12-07T17:19:44;22.73;;;13.30;;
24381;SDS011;12502;50.678;7.172;2022-12-07T17:24:48;23.63;;;11.75;;
24381;SDS011;12502;50.678;7.172;2022-12-07T17:29:50;23.90;;;13.45;;
24381;SDS011;12502;50.678;7.172;2022-12-07T17:34:51;26.30;;;14.57;;
24381;SDS011;12502;50.678;7.172;2022-12-07T17:39:53;20.17;;;13.23;;
24381;SDS011;12502;50.678;7.172;2022-12-07T17:44:58;23.90;;;12.52;;
24381;SDS011;12502;50.678;7.172;2022-12-07T17:50:00;21.75;;;13.73;;
24381;SDS011;12502;50.678;7.172;2022-12-07T17:55:07;22.55;;;14.35;;
24381;SDS011;12502;50.678;7.172;2022-12-07T18:00:09;20.63;;;13.45;;
24381;SDS011;12502;50.678;7.172;2022-12-07T18:05:12;24.23;;;13.93;;
24381;SDS011;12502;50.678;7.172;2022-12-07T18:10:14;22.63;;;14.50;;
24381;SDS011;12502;50.678;7.172;2022-12-07T18:15:15;24.15;;;12.45;;
24381;SDS011;12502;50.678;7.172;2022-12-07T18:20:17;21.60;;;12.18;;
24381;SDS011;12502;50.678;7.172;2022-12-07T18:25:19;20.73;;;13.48;;
24381;SDS011;12502;50.678;7.172;2022-12-07T18:30:21;22.30;;;11.95;;
24381;SDS011;12502;50.678;7.172;2022-12-07T18:35:43;21.90;;;13.10;;
24381;SDS011;12502;50.678;7.172;2022-12-07T18:40:45;21.88;;;11.80;;
24381;SDS011;12502;50.678;7.172;2022-12-07T18:45:47;18.73;;;12.07;;
24381;SDS011;12502;50.678;7.172;2022-12-07T18:51:00;19.52;;;11.40;;
24381;SDS011;12502;50.678;7.172;2022-12-07T18:56:04;19.35;;;11.80;;
24381;SDS011;12502;50.678;7.172;2022-12-07T19:01:18;18.70;;;11.63;;
24381;SDS011;12502;50.678;7.172;2022-12-07T19:06:20;14.23;;;10.68;;
24381;SDS011;12502;50.678;7.172;2022-12-07T19:11:25;18.88;;;11.70;;
24381;SDS011;12502;50.678;7.172;2022-12-07T19:16:47;16.50;;;11.20;;
24381;SDS011;12502;50.678;7.172;2022-12-07T19:21:51;20.58;;;11.50;;
24381;SDS011;12502;50.678;7.172;2022-12-07T19:26:52;16.27;;;11.55;;
24381;SDS011;12502;50.678;7.172;2022-12-07T19:31:54;15.13;;;10.27;;
24381;SDS011;12502;50.678;7.172;2022-12-07T19:36:57;16.98;;;10.77;;
24381;SDS011;12502;50.678;7.172;2022-12-07T19:41:59;22.40;;;12.60;;
24381;SDS011;12502;50.678;7.172;2022-12-07T19:47:02;13.30;;;9.23;;
24381;SDS011;12502;50.678;7.172;2022-12-07T19:52:06;16.77;;;10.30;;
24381;SDS011;12502;50.678;7.172;2022-12-07T19:57:08;16.67;;;11.43;;
24381;SDS011;12502;50.678;7.172;2022-12-07T20:02:15;17.52;;;11.18;;
24381;SDS011;12502;50.678;7.172;2022-12-07T20:07:17;20.08;;;12.07;;
24381;SDS011;12502;50.678;7.172;2022-12-07T20:12:18;22.58;;;12.98;;
24381;SDS011;12502;50.678;7.172;2022-12-07T20:17:39;17.02;;;11.25;;
24381;SDS011;12502;50.678;7.172;2022-12-07T20:22:40;16.63;;;11.95;;
24381;SDS011;12502;50.678;7.172;2022-12-07T20:27:42;20.90;;;13.18;;
24381;SDS011;12502;50.678;7.172;2022-12-07T20:32:44;19.13;;;12.40;;
24381;SDS011;12502;50.678;7.172;2022-12-07T20:37:45;17.15;;;12.93;;
24381;SDS011;12502;50.678;7.172;2022-12-07T20:42:47;21.38;;;12.75;;
24381;SDS011;12502;50.678;7.172;2022-12-07T20:47:49;18.85;;;12.07;;
24381;SDS011;12502;50.678;7.172;2022-12-07T20:52:50;21.17;;;13.05;;
24381;SDS011;12502;50.678;7.172;2022-12-07T20:58:01;19.60;;;12.55;;
24381;SDS011;12502;50.678;7.172;2022-12-07T21:03:03;23.30;;;13.43;;
24381;SDS011;12502;50.678;7.172;2022-12-07T21:08:05;19.30;;;13.23;;
24381;SDS011;12502;50.678;7.172;2022-12-07T21:13:07;26.05;;;13.75;;
24381;SDS011;12502;50.678;7.172;2022-12-07T21:18:09;21.75;;;13.50;;
24381;SDS011;12502;50.678;7.172;2022-12-07T21:23:10;18.02;;;12.07;;
24381;SDS011;12502;50.678;7.172;2022-12-07T21:28:12;20.05;;;12.77;;
24381;SDS011;12502;50.678;7.172;2022-12-07T21:33:14;16.40;;;12.50;;
24381;SDS011;12502;50.678;7.172;2022-12-07T21:38:16;19.63;;;12.18;;
24381;SDS011;12502;50.678;7.172;2022-12-07T21:43:18;16.88;;;10.80;;
24381;SDS011;12502;50.678;7.172;2022-12-07T21:48:20;21.35;;;12.65;;
24381;SDS011;12502;50.678;7.172;2022-12-07T21:53:22;19.17;;;12.35;;
24381;SDS011;12502;50.678;7.172;2022-12-07T21:58:23;19.95;;;11.82;;
24381;SDS011;12502;50.678;7.172;2022-12-07T22:03:25;19.10;;;12.38;;
24381;SDS011;12502;50.678;7.172;2022-12-07T22:08:27;20.13;;;12.60;;
24381;SDS011;12502;50.678;7.172;2022-12-07T22:13:32;21.60;;;14.10;;
24381;SDS011;12502;50.678;7.172;2022-12-07T22:18:52;21.25;;;12.90;;
24381;SDS011;12502;50.678;7.172;2022-12-07T22:23:55;21.50;;;12.90;;
24381;SDS011;12502;50.678;7.172;2022-12-07T22:28:57;20.25;;;12.65;;
24381;SDS011;12502;50.678;7.172;2022-12-07T22:33:59;23.17;;;13.18;;
24381;SDS011;12502;50.678;7.172;2022-12-07T22:39:00;21.98;;;13.32;;
24381;SDS011;12502;50.678;7.172;2022-12-07T22:44:03;21.92;;;14.65;;
24381;SDS011;12502;50.678;7.172;2022-12-07T22:49:07;25.00;;;15.23;;
24381;SDS011;12502;50.678;7.172;2022-12-07T22:54:12;21.20;;;13.82;;
24381;SDS011;12502;50.678;7.172;2022-12-07T22:59:18;18.92;;;13.75;;
24381;SDS011;12502;50.678;7.172;2022-12-07T23:04:19;21.05;;;13.35;;
24381;SDS011;12502;50.678;7.172;2022-12-07T23:09:21;18.38;;;13.18;;
24381;SDS011;12502;50.678;7.172;2022-12-07T23:14:24;24.25;;;13.88;;
24381;SDS011;12502;50.678;7.172;2022-12-07T23:19:31;20.88;;;14.38;;
24381;SDS011;12502;50.678;7.172;2022-12-07T23:24:33;21.58;;;13.65;;
24381;SDS011;12502;50.678;7.172;2022-12-07T23:29:35;23.30;;;13.73;;
24381;SDS011;12502;50.678;7.172;2022-12-07T23:34:36;22.48;;;14.55;;
24381;SDS011;12502;50.678;7.172;2022-12-07T23:39:38;21.35;;;13.13;;
24381;SDS011;12502;50.678;7.172;2022-12-07T23:44:40;23.65;;;14.40;;
24381;SDS011;12502;50.678;7.172;2022-12-07T23:49:41;23.08;;;15.88;;
24381;SDS011;12502;50.678;7.172;2022-12-07T23:54:43;21.73;;;14.38;;
24381;SDS011;12502;50.678;7.172;2022-12-07T23:59:45;21.70;;;13.50;;
